sensor_id;sensor_type;location;lat;lon;timestamp;pressure;altitude;pressure_sealevel;temperature;humidity
19236;BME280;9752;54.270;12.470;2023-05-11T00:02:19;102274.41;;;8.06;100.00
19236;BME280;9752;54.270;12.470;2023-05-11T00:07:21;102281.13;;;8.04;100.00
19236;BME280;9752;54.270;12.470;2023-05-11T00:12:23;102283.44;;;8.01;100.00
19236;BME280;9752;54.270;12.470;2023-05-11T00:17:26;102296.28;;;7.82;100.00
19236;BME280;9752;54.270;12.470;2023-05-11T00:22:27;102295.56;;;7.74;100.00
19236;BME280;9752;54.270;12.470;2023-05-11T00:27:29;102308.06;;;7.61;100.00
19236;BME280;9752;54.270;12.470;2023-05-11T00:32:32;102309.91;;;7.53;100.00
19236;BME280;9752;54.270;12.470;2023-05-11T00:37:34;102335.34;;;7.76;100.00
19236;BME280;9752;54.270;12.470;2023-05-11T00:42:36;102367.25;;;7.86;100.00
19236;BME280;9752;54.270;12.470;2023-05-11T00:47:39;102389.44;;;7.84;100.00
19236;BME280;9752;54.270;12.470;2023-05-11T00:52:41;102398.88;;;7.57;100.00
19236;BME280;9752;54.270;12.470;2023-05-11T00:57:42;102419.84;;;7.69;100.00
19236;BME280;9752;54.270;12.470;2023-05-11T01:02:46;102427.44;;;7.67;100.00
19236;BME280;9752;54.270;12.470;2023-05-11T01:07:52;102429.25;;;7.51;100.00
19236;BME280;9752;54.270;12.470;2023-05-11T01:13:03;102438.38;;;7.38;100.00
19236;BME280;9752;54.270;12.470;2023-05-11T01:18:16;102457.81;;;7.35;100.00
19236;BME280;9752;54.270;12.470;2023-05-11T01:23:42;102467.84;;;7.23;100.00
19236;BME280;9752;54.270;12.470;2023-05-11T01:29:00;102475.13;;;7.27;100.00
19236;BME280;9752;54.270;12.470;2023-05-11T01:34:13;102482.97;;;7.11;100.00
19236;BME280;9752;54.270;12.470;2023-05-11T01:39:22;102496.59;;;7.01;100.00
19236;BME280;9752;54.270;12.470;2023-05-11T01:44:29;102503.91;;;7.06;100.00
19236;BME280;9752;54.270;12.470;2023-05-11T01:49:36;102528.25;;;7.25;100.00
19236;BME280;9752;54.270;12.470;2023-05-11T01:54:39;102538.59;;;7.25;100.00
19236;BME280;9752;54.270;12.470;2023-05-11T01:59:42;102547.97;;;7.16;100.00
19236;BME280;9752;54.270;12.470;2023-05-11T02:04:47;102554.44;;;7.03;100.00
19236;BME280;9752;54.270;12.470;2023-05-11T02:09:49;102569.00;;;7.03;100.00
19236;BME280;9752;54.270;12.470;2023-05-11T02:14:52;102570.47;;;6.92;100.00
19236;BME280;9752;54.270;12.470;2023-05-11T02:19:56;102583.06;;;6.89;100.00
19236;BME280;9752;54.270;12.470;2023-05-11T02:24:59;102589.75;;;6.87;100.00
19236;BME280;9752;54.270;12.470;2023-05-11T02:30:01;102601.06;;;6.80;100.00
19236;BME280;9752;54.270;12.470;2023-05-11T02:35:08;102611.38;;;6.72;100.00
19236;BME280;9752;54.270;12.470;2023-05-11T02:40:16;102617.44;;;6.72;100.00
19236;BME280;9752;54.270;12.470;2023-05-11T02:45:21;102634.94;;;6.83;100.00
19236;BME280;9752;54.270;12.470;2023-05-11T02:50:26;102648.91;;;6.86;100.00
19236;BME280;9752;54.270;12.470;2023-05-11T02:55:31;102656.13;;;6.81;100.00
19236;BME280;9752;54.270;12.470;2023-05-11T03:00:32;102667.88;;;6.86;100.00
19236;BME280;9752;54.270;12.470;2023-05-11T03:05:36;102687.75;;;6.87;100.00
19236;BME280;9752;54.270;12.470;2023-05-11T03:10:38;102692.06;;;6.95;100.00
19236;BME280;9752;54.270;12.470;2023-05-11T03:15:41;102704.63;;;6.92;100.00
19236;BME280;9752;54.270;12.470;2023-05-11T03:20:45;102699.69;;;6.78;100.00
19236;BME280;9752;54.270;12.470;2023-05-11T03:25:48;102701.94;;;6.75;100.00
19236;BME280;9752;54.270;12.470;2023-05-11T03:30:51;102701.38;;;6.61;100.00
19236;BME280;9752;54.270;12.470;2023-05-11T03:35:55;102713.03;;;6.58;100.00
19236;BME280;9752;54.270;12.470;2023-05-11T03:40:59;102725.09;;;6.66;100.00
19236;BME280;9752;54.270;12.470;2023-05-11T03:46:04;102720.94;;;6.59;100.00
19236;BME280;9752;54.270;12.470;2023-05-11T03:51:08;102739.09;;;6.77;100.00
19236;BME280;9752;54.270;12.470;2023-05-11T03:56:10;102756.34;;;6.85;100.00
19236;BME280;9752;54.270;12.470;2023-05-11T04:01:12;102784.56;;;7.08;100.00
19236;BME280;9752;54.270;12.470;2023-05-11T04:06:16;102812.72;;;7.38;100.00
19236;BME280;9752;54.270;12.470;2023-05-11T04:11:21;102833.94;;;7.60;100.00
19236;BME280;9752;54.270;12.470;2023-05-11T04:16:22;102839.59;;;7.65;100.00
19236;BME280;9752;54.270;12.470;2023-05-11T04:21:25;102855.66;;;7.87;100.00
19236;BME280;9752;54.270;12.470;2023-05-11T04:26:27;102876.47;;;8.13;100.00
19236;BME280;9752;54.270;12.470;2023-05-11T04:31:29;102895.09;;;8.35;100.00
19236;BME280;9752;54.270;12.470;2023-05-11T04:36:32;102899.47;;;8.52;100.00
19236;BME280;9752;54.270;12.470;2023-05-11T04:41:34;102924.16;;;8.84;100.00
19236;BME280;9752;54.270;12.470;2023-05-11T04:46:37;102936.72;;;9.05;100.00
19236;BME280;9752;54.270;12.470;2023-05-11T04:51:40;102965.06;;;9.38;100.00
19236;BME280;9752;54.270;12.470;2023-05-11T04:56:42;102976.94;;;9.54;100.00
19236;BME280;9752;54.270;12.470;2023-05-11T05:01:44;102980.44;;;9.81;100.00
19236;BME280;9752;54.270;12.470;2023-05-11T05:06:47;102984.06;;;10.00;100.00
19236;BME280;9752;54.270;12.470;2023-05-11T05:11:49;102972.13;;;10.11;100.00
19236;BME280;9752;54.270;12.470;2023-05-11T05:16:51;102967.03;;;10.30;100.00
19236;BME280;9752;54.270;12.470;2023-05-11T05:21:55;102952.06;;;10.53;100.00
19236;BME280;9752;54.270;12.470;2023-05-11T05:26:57;102940.91;;;10.82;100.00
19236;BME280;9752;54.270;12.470;2023-05-11T05:31:59;102935.25;;;11.24;100.00
19236;BME280;9752;54.270;12.470;2023-05-11T05:37:03;102908.34;;;11.62;100.00
19236;BME280;9752;54.270;12.470;2023-05-11T05:42:05;102876.66;;;11.95;100.00
19236;BME280;9752;54.270;12.470;2023-05-11T05:47:07;102840.84;;;12.53;100.00
19236;BME280;9752;54.270;12.470;2023-05-11T05:52:12;102779.97;;;13.03;100.00
19236;BME280;9752;54.270;12.470;2023-05-11T05:57:14;102695.94;;;13.38;100.00
19236;BME280;9752;54.270;12.470;2023-05-11T06:02:18;102591.56;;;13.71;100.00
19236;BME280;9752;54.270;12.470;2023-05-11T06:07:21;102481.22;;;14.07;100.00
19236;BME280;9752;54.270;12.470;2023-05-11T06:12:24;102370.34;;;14.51;100.00
19236;BME280;9752;54.270;12.470;2023-05-11T06:17:28;102257.94;;;14.74;100.00
19236;BME280;9752;54.270;12.470;2023-05-11T06:22:32;102178.56;;;15.12;100.00
19236;BME280;9752;54.270;12.470;2023-05-11T06:27:36;102105.72;;;15.32;100.00
19236;BME280;9752;54.270;12.470;2023-05-11T06:32:38;102030.03;;;15.78;100.00
19236;BME280;9752;54.270;12.470;2023-05-11T06:37:43;101947.28;;;16.10;100.00
19236;BME280;9752;54.270;12.470;2023-05-11T06:42:44;101850.75;;;16.16;100.00
19236;BME280;9752;54.270;12.470;2023-05-11T06:47:46;101819.28;;;16.82;100.00
19236;BME280;9752;54.270;12.470;2023-05-11T06:52:49;101778.91;;;16.60;100.00
19236;BME280;9752;54.270;12.470;2023-05-11T06:57:51;101778.75;;;16.91;100.00
19236;BME280;9752;54.270;12.470;2023-05-11T07:02:53;101756.97;;;17.10;100.00
19236;BME280;9752;54.270;12.470;2023-05-11T07:07:56;101743.13;;;17.13;100.00
19236;BME280;9752;54.270;12.470;2023-05-11T07:12:57;101727.84;;;17.60;100.00
19236;BME280;9752;54.270;12.470;2023-05-11T07:17:59;101695.91;;;17.31;100.00
19236;BME280;9752;54.270;12.470;2023-05-11T07:23:02;101699.78;;;17.76;100.00
19236;BME280;9752;54.270;12.470;2023-05-11T07:28:04;101694.53;;;17.96;100.00
19236;BME280;9752;54.270;12.470;2023-05-11T07:33:06;101694.78;;;18.01;100.00
19236;BME280;9752;54.270;12.470;2023-05-11T07:38:09;101697.44;;;18.22;100.00
19236;BME280;9752;54.270;12.470;2023-05-11T07:43:12;101700.16;;;18.44;100.00
19236;BME280;9752;54.270;12.470;2023-05-11T07:48:14;101693.63;;;18.56;100.00
19236;BME280;9752;54.270;12.470;2023-05-11T07:53:17;101689.44;;;18.82;100.00
19236;BME280;9752;54.270;12.470;2023-05-11T07:58:18;101683.75;;;18.92;100.00
19236;BME280;9752;54.270;12.470;2023-05-11T08:03:20;101683.66;;;19.34;100.00
19236;BME280;9752;54.270;12.470;2023-05-11T08:08:23;101686.78;;;19.24;100.00
19236;BME280;9752;54.270;12.470;2023-05-11T08:13:25;101689.28;;;19.43;100.00
19236;BME280;9752;54.270;12.470;2023-05-11T08:18:27;101688.50;;;19.93;100.00
19236;BME280;9752;54.270;12.470;2023-05-11T08:23:30;101686.94;;;20.23;100.00
19236;BME280;9752;54.270;12.470;2023-05-11T08:28:32;101693.38;;;20.06;100.00
19236;BME280;9752;54.270;12.470;2023-05-11T08:33:33;101690.50;;;20.50;100.00
19236;BME280;9752;54.270;12.470;2023-05-11T08:38:36;101692.34;;;20.26;100.00
19236;BME280;9752;54.270;12.470;2023-05-11T08:43:39;101701.22;;;20.56;100.00
19236;BME280;9752;54.270;12.470;2023-05-11T08:48:41;101698.53;;;20.54;100.00
19236;BME280;9752;54.270;12.470;2023-05-11T08:53:44;101694.28;;;20.83;100.00
19236;BME280;9752;54.270;12.470;2023-05-11T08:58:46;101698.13;;;20.67;100.00
19236;BME280;9752;54.270;12.470;2023-05-11T09:03:49;101693.59;;;20.63;100.00
19236;BME280;9752;54.270;12.470;2023-05-11T09:08:52;101695.34;;;20.90;100.00
19236;BME280;9752;54.270;12.470;2023-05-11T09:13:54;101687.19;;;21.38;100.00
19236;BME280;9752;54.270;12.470;2023-05-11T09:18:59;101694.06;;;21.33;100.00
19236;BME280;9752;54.270;12.470;2023-05-11T09:24:03;101692.06;;;21.83;100.00
19236;BME280;9752;54.270;12.470;2023-05-11T09:29:04;101693.13;;;21.90;100.00
19236;BME280;9752;54.270;12.470;2023-05-11T09:34:14;101688.53;;;20.70;100.00
19236;BME280;9752;54.270;12.470;2023-05-11T09:39:17;101692.03;;;20.69;100.00
19236;BME280;9752;54.270;12.470;2023-05-11T09:44:19;101681.75;;;21.62;100.00
19236;BME280;9752;54.270;12.470;2023-05-11T09:49:28;101682.34;;;22.14;100.00
19236;BME280;9752;54.270;12.470;2023-05-11T09:54:39;101683.34;;;22.18;100.00
19236;BME280;9752;54.270;12.470;2023-05-11T09:59:41;101683.75;;;22.33;100.00
19236;BME280;9752;54.270;12.470;2023-05-11T10:04:43;101679.94;;;22.57;100.00
19236;BME280;9752;54.270;12.470;2023-05-11T10:09:47;101679.53;;;21.76;100.00
19236;BME280;9752;54.270;12.470;2023-05-11T10:14:53;101672.34;;;22.02;100.00
19236;BME280;9752;54.270;12.470;2023-05-11T10:19:55;101673.63;;;22.52;100.00
19236;BME280;9752;54.270;12.470;2023-05-11T10:24:59;101672.69;;;22.48;100.00
19236;BME280;9752;54.270;12.470;2023-05-11T10:30:01;101672.09;;;22.96;100.00
19236;BME280;9752;54.270;12.470;2023-05-11T10:35:05;101673.22;;;23.46;100.00
19236;BME280;9752;54.270;12.470;2023-05-11T10:40:10;101671.00;;;23.25;100.00
19236;BME280;9752;54.270;12.470;2023-05-11T10:45:17;101666.56;;;23.24;100.00
19236;BME280;9752;54.270;12.470;2023-05-11T10:50:33;101665.25;;;23.03;100.00
19236;BME280;9752;54.270;12.470;2023-05-11T10:55:51;101665.75;;;23.26;100.00
19236;BME280;9752;54.270;12.470;2023-05-11T11:01:25;101665.66;;;22.49;100.00
19236;BME280;9752;54.270;12.470;2023-05-11T11:06:31;101659.69;;;22.95;100.00
19236;BME280;9752;54.270;12.470;2023-05-11T11:11:36;101655.88;;;23.60;100.00
19236;BME280;9752;54.270;12.470;2023-05-11T11:16:39;101670.03;;;23.62;100.00
19236;BME280;9752;54.270;12.470;2023-05-11T11:21:41;101665.59;;;24.05;100.00
19236;BME280;9752;54.270;12.470;2023-05-11T11:26:48;101668.84;;;23.89;100.00
19236;BME280;9752;54.270;12.470;2023-05-11T11:31:50;101662.44;;;24.25;100.00
19236;BME280;9752;54.270;12.470;2023-05-11T11:37:05;101660.91;;;24.39;100.00
19236;BME280;9752;54.270;12.470;2023-05-11T11:42:11;101656.69;;;25.07;100.00
19236;BME280;9752;54.270;12.470;2023-05-11T11:47:13;101656.47;;;24.91;100.00
19236;BME280;9752;54.270;12.470;2023-05-11T11:52:32;101654.94;;;25.09;100.00
19236;BME280;9752;54.270;12.470;2023-05-11T11:57:44;101664.75;;;25.14;100.00
19236;BME280;9752;54.270;12.470;2023-05-11T12:02:50;101685.97;;;23.65;100.00
19236;BME280;9752;54.270;12.470;2023-05-11T12:07:53;101691.81;;;23.09;100.00
19236;BME280;9752;54.270;12.470;2023-05-11T12:12:57;101694.03;;;23.29;100.00
19236;BME280;9752;54.270;12.470;2023-05-11T12:17:58;101676.47;;;24.19;100.00
19236;BME280;9752;54.270;12.470;2023-05-11T12:23:02;101679.72;;;23.60;100.00
19236;BME280;9752;54.270;12.470;2023-05-11T12:28:05;101682.19;;;23.54;100.00
19236;BME280;9752;54.270;12.470;2023-05-11T12:33:07;101675.72;;;23.79;100.00
19236;BME280;9752;54.270;12.470;2023-05-11T12:38:09;101676.41;;;24.65;100.00
19236;BME280;9752;54.270;12.470;2023-05-11T12:43:16;101664.91;;;23.70;93.87
19236;BME280;9752;54.270;12.470;2023-05-11T12:48:17;101658.56;;;25.14;92.62
19236;BME280;9752;54.270;12.470;2023-05-11T12:53:20;101680.72;;;24.09;91.33
19236;BME280;9752;54.270;12.470;2023-05-11T12:58:24;101681.41;;;23.17;93.93
19236;BME280;9752;54.270;12.470;2023-05-11T13:03:26;101685.78;;;23.15;95.47
19236;BME280;9752;54.270;12.470;2023-05-11T13:08:29;101667.88;;;23.05;90.20
19236;BME280;9752;54.270;12.470;2023-05-11T13:13:32;101664.81;;;24.11;88.80
19236;BME280;9752;54.270;12.470;2023-05-11T13:18:33;101637.03;;;25.58;81.60
19236;BME280;9752;54.270;12.470;2023-05-11T13:23:35;101625.59;;;25.65;76.42
19236;BME280;9752;54.270;12.470;2023-05-11T13:28:38;101622.28;;;25.89;75.11
19236;BME280;9752;54.270;12.470;2023-05-11T13:33:40;101644.94;;;24.89;75.28
19236;BME280;9752;54.270;12.470;2023-05-11T13:38:41;101666.63;;;23.69;78.71
19236;BME280;9752;54.270;12.470;2023-05-11T13:43:44;101655.28;;;23.76;81.52
19236;BME280;9752;54.270;12.470;2023-05-11T13:48:48;101626.34;;;25.54;82.18
19236;BME280;9752;54.270;12.470;2023-05-11T13:53:49;101606.56;;;26.09;70.25
19236;BME280;9752;54.270;12.470;2023-05-11T13:58:52;101614.41;;;25.94;69.66
19236;BME280;9752;54.270;12.470;2023-05-11T14:03:55;101612.44;;;25.78;67.28
19236;BME280;9752;54.270;12.470;2023-05-11T14:08:57;101612.44;;;25.78;65.94
19236;BME280;9752;54.270;12.470;2023-05-11T14:14:00;101625.53;;;25.59;69.11
19236;BME280;9752;54.270;12.470;2023-05-11T14:19:01;101634.50;;;25.72;71.99
19236;BME280;9752;54.270;12.470;2023-05-11T14:24:03;101605.06;;;26.42;65.68
19236;BME280;9752;54.270;12.470;2023-05-11T14:29:06;101591.47;;;27.45;63.39
19236;BME280;9752;54.270;12.470;2023-05-11T14:34:08;101617.25;;;27.51;65.83
19236;BME280;9752;54.270;12.470;2023-05-11T14:39:10;101597.84;;;28.46;65.27
19236;BME280;9752;54.270;12.470;2023-05-11T14:44:13;101570.16;;;29.02;57.66
19236;BME280;9752;54.270;12.470;2023-05-11T14:49:15;101628.94;;;27.85;63.00
19236;BME280;9752;54.270;12.470;2023-05-11T14:54:17;101671.19;;;25.99;68.62
19236;BME280;9752;54.270;12.470;2023-05-11T14:59:20;101606.69;;;29.03;63.96
19236;BME280;9752;54.270;12.470;2023-05-11T15:04:23;101645.63;;;27.33;64.93
19236;BME280;9752;54.270;12.470;2023-05-11T15:09:25;101677.34;;;25.26;71.52
19236;BME280;9752;54.270;12.470;2023-05-11T15:14:28;101687.72;;;24.06;75.07
19236;BME280;9752;54.270;12.470;2023-05-11T15:19:30;101703.38;;;23.14;82.16
19236;BME280;9752;54.270;12.470;2023-05-11T15:24:32;101702.28;;;23.05;85.88
19236;BME280;9752;54.270;12.470;2023-05-11T15:29:35;101693.50;;;23.06;82.92
19236;BME280;9752;54.270;12.470;2023-05-11T15:34:37;101679.47;;;24.92;82.43
19236;BME280;9752;54.270;12.470;2023-05-11T15:39:38;101621.69;;;27.38;68.34
19236;BME280;9752;54.270;12.470;2023-05-11T15:44:41;101607.56;;;27.87;62.07
19236;BME280;9752;54.270;12.470;2023-05-11T15:49:43;101613.00;;;28.31;62.06
19236;BME280;9752;54.270;12.470;2023-05-11T15:54:45;101621.91;;;28.58;62.87
19236;BME280;9752;54.270;12.470;2023-05-11T15:59:48;101639.69;;;28.62;62.68
19236;BME280;9752;54.270;12.470;2023-05-11T16:04:50;101625.47;;;28.63;59.90
19236;BME280;9752;54.270;12.470;2023-05-11T16:09:52;101659.28;;;28.69;63.03
19236;BME280;9752;54.270;12.470;2023-05-11T16:14:55;101695.44;;;26.33;66.43
19236;BME280;9752;54.270;12.470;2023-05-11T16:19:56;101737.34;;;24.14;74.85
19236;BME280;9752;54.270;12.470;2023-05-11T16:24:59;101744.63;;;22.70;90.48
19236;BME280;9752;54.270;12.470;2023-05-11T16:30:03;101744.22;;;22.22;95.35
19236;BME280;9752;54.270;12.470;2023-05-11T16:35:05;101724.19;;;23.37;94.03
19236;BME280;9752;54.270;12.470;2023-05-11T16:40:08;101725.25;;;23.06;89.01
19236;BME280;9752;54.270;12.470;2023-05-11T16:45:11;101732.91;;;23.31;86.18
19236;BME280;9752;54.270;12.470;2023-05-11T16:50:13;101765.34;;;21.33;95.94
19236;BME280;9752;54.270;12.470;2023-05-11T16:55:15;101771.72;;;20.36;100.00
19236;BME280;9752;54.270;12.470;2023-05-11T17:00:18;101762.53;;;20.24;100.00
19236;BME280;9752;54.270;12.470;2023-05-11T17:05:20;101722.41;;;23.77;95.16
19236;BME280;9752;54.270;12.470;2023-05-11T17:10:22;101730.38;;;24.67;86.83
19236;BME280;9752;54.270;12.470;2023-05-11T17:15:25;101773.84;;;20.97;98.44
19236;BME280;9752;54.270;12.470;2023-05-11T17:20:27;101777.34;;;19.53;100.00
19236;BME280;9752;54.270;12.470;2023-05-11T17:25:30;101784.28;;;19.07;100.00
19236;BME280;9752;54.270;12.470;2023-05-11T17:30:33;101777.88;;;19.01;100.00
19236;BME280;9752;54.270;12.470;2023-05-11T17:35:34;101791.44;;;18.69;100.00
19236;BME280;9752;54.270;12.470;2023-05-11T17:40:36;101799.69;;;18.38;100.00
19236;BME280;9752;54.270;12.470;2023-05-11T17:45:39;101793.25;;;17.92;100.00
19236;BME280;9752;54.270;12.470;2023-05-11T17:50:41;101807.00;;;17.51;100.00
19236;BME280;9752;54.270;12.470;2023-05-11T17:55:43;101815.50;;;17.09;100.00
19236;BME280;9752;54.270;12.470;2023-05-11T18:00:46;101821.28;;;16.86;100.00
19236;BME280;9752;54.270;12.470;2023-05-11T18:05:48;101819.41;;;16.67;100.00
19236;BME280;9752;54.270;12.470;2023-05-11T18:10:50;101818.84;;;16.56;100.00
19236;BME280;9752;54.270;12.470;2023-05-11T18:15:54;101820.66;;;16.40;100.00
19236;BME280;9752;54.270;12.470;2023-05-11T18:20:56;101831.78;;;16.20;100.00
19236;BME280;9752;54.270;12.470;2023-05-11T18:25:58;101826.50;;;15.87;100.00
19236;BME280;9752;54.270;12.470;2023-05-11T18:31:01;101838.09;;;15.61;100.00
19236;BME280;9752;54.270;12.470;2023-05-11T18:36:03;101837.31;;;15.47;100.00
19236;BME280;9752;54.270;12.470;2023-05-11T18:41:06;101840.94;;;15.19;100.00
19236;BME280;9752;54.270;12.470;2023-05-11T18:46:09;101846.63;;;14.82;100.00
19236;BME280;9752;54.270;12.470;2023-05-11T18:51:11;101857.59;;;14.62;100.00
19236;BME280;9752;54.270;12.470;2023-05-11T18:56:18;101869.72;;;14.33;100.00
19236;BME280;9752;54.270;12.470;2023-05-11T19:01:23;101875.72;;;14.17;100.00
19236;BME280;9752;54.270;12.470;2023-05-11T19:06:24;101882.47;;;14.00;100.00
19236;BME280;9752;54.270;12.470;2023-05-11T19:11:27;101895.22;;;13.82;100.00
19236;BME280;9752;54.270;12.470;2023-05-11T19:16:30;101900.53;;;13.44;100.00
19236;BME280;9752;54.270;12.470;2023-05-11T19:21:34;101904.13;;;13.33;100.00
19236;BME280;9752;54.270;12.470;2023-05-11T19:26:39;101907.94;;;13.13;100.00
19236;BME280;9752;54.270;12.470;2023-05-11T19:31:42;101915.06;;;13.02;100.00
19236;BME280;9752;54.270;12.470;2023-05-11T19:36:44;101918.69;;;12.79;100.00
19236;BME280;9752;54.270;12.470;2023-05-11T19:41:46;101919.31;;;12.63;100.00
19236;BME280;9752;54.270;12.470;2023-05-11T19:46:49;101926.81;;;12.58;100.00
19236;BME280;9752;54.270;12.470;2023-05-11T19:51:50;101926.16;;;12.49;100.00
19236;BME280;9752;54.270;12.470;2023-05-11T19:56:53;101932.41;;;12.39;100.00
19236;BME280;9752;54.270;12.470;2023-05-11T20:01:57;101933.66;;;12.33;100.00
19236;BME280;9752;54.270;12.470;2023-05-11T20:06:58;101930.41;;;12.23;100.00
19236;BME280;9752;54.270;12.470;2023-05-11T20:12:00;101943.66;;;12.15;100.00
19236;BME280;9752;54.270;12.470;2023-05-11T20:17:04;101941.97;;;12.03;100.00
19236;BME280;9752;54.270;12.470;2023-05-11T20:22:06;101946.81;;;11.99;100.00
19236;BME280;9752;54.270;12.470;2023-05-11T20:27:08;101935.78;;;11.89;100.00
19236;BME280;9752;54.270;12.470;2023-05-11T20:32:11;101942.19;;;11.83;100.00
19236;BME280;9752;54.270;12.470;2023-05-11T20:37:13;101952.34;;;11.68;100.00
19236;BME280;9752;54.270;12.470;2023-05-11T20:42:15;101952.22;;;11.66;100.00
19236;BME280;9752;54.270;12.470;2023-05-11T20:47:18;101954.72;;;11.77;100.00
19236;BME280;9752;54.270;12.470;2023-05-11T20:52:20;101956.88;;;11.82;100.00
19236;BME280;9752;54.270;12.470;2023-05-11T20:57:22;101960.38;;;12.06;100.00
19236;BME280;9752;54.270;12.470;2023-05-11T21:02:25;101960.47;;;12.20;100.00
19236;BME280;9752;54.270;12.470;2023-05-11T21:07:27;101960.03;;;12.25;100.00
19236;BME280;9752;54.270;12.470;2023-05-11T21:12:29;101960.84;;;12.24;100.00
19236;BME280;9752;54.270;12.470;2023-05-11T21:17:32;101962.31;;;12.21;100.00
19236;BME280;9752;54.270;12.470;2023-05-11T21:22:35;101960.72;;;12.23;100.00
19236;BME280;9752;54.270;12.470;2023-05-11T21:27:37;101963.31;;;12.23;100.00
19236;BME280;9752;54.270;12.470;2023-05-11T21:32:42;101967.81;;;12.25;100.00
19236;BME280;9752;54.270;12.470;2023-05-11T21:37:44;101970.22;;;12.22;100.00
19236;BME280;9752;54.270;12.470;2023-05-11T21:42:48;101975.06;;;12.18;100.00
19236;BME280;9752;54.270;12.470;2023-05-11T21:47:51;101986.84;;;12.01;100.00
19236;BME280;9752;54.270;12.470;2023-05-11T21:52:53;101983.22;;;11.87;100.00
19236;BME280;9752;54.270;12.470;2023-05-11T21:57:54;101991.78;;;11.62;100.00
19236;BME280;9752;54.270;12.470;2023-05-11T22:02:57;101995.47;;;11.42;100.00
19236;BME280;9752;54.270;12.470;2023-05-11T22:07:59;101994.84;;;11.23;100.00
19236;BME280;9752;54.270;12.470;2023-05-11T22:13:01;101995.03;;;11.02;100.00
19236;BME280;9752;54.270;12.470;2023-05-11T22:18:04;102002.25;;;10.84;100.00
19236;BME280;9752;54.270;12.470;2023-05-11T22:23:06;102014.50;;;10.75;100.00
19236;BME280;9752;54.270;12.470;2023-05-11T22:28:07;102016.38;;;10.66;100.00
19236;BME280;9752;54.270;12.470;2023-05-11T22:33:10;102022.13;;;10.62;100.00
19236;BME280;9752;54.270;12.470;2023-05-11T22:38:12;102022.19;;;10.51;100.00
19236;BME280;9752;54.270;12.470;2023-05-11T22:43:14;102030.13;;;10.43;100.00
19236;BME280;9752;54.270;12.470;2023-05-11T22:48:17;102032.88;;;10.24;100.00
19236;BME280;9752;54.270;12.470;2023-05-11T22:53:18;102034.72;;;10.14;100.00
19236;BME280;9752;54.270;12.470;2023-05-11T22:58:20;102044.72;;;10.10;100.00
19236;BME280;9752;54.270;12.470;2023-05-11T23:03:26;102045.75;;;10.12;100.00
19236;BME280;9752;54.270;12.470;2023-05-11T23:08:27;102051.19;;;10.05;100.00
19236;BME280;9752;54.270;12.470;2023-05-11T23:13:29;102049.28;;;9.92;100.00
19236;BME280;9752;54.270;12.470;2023-05-11T23:18:32;102052.28;;;9.76;100.00
19236;BME280;9752;54.270;12.470;2023-05-11T23:23:34;102052.28;;;9.55;100.00
19236;BME280;9752;54.270;12.470;2023-05-11T23:28:35;102053.06;;;9.44;100.00
19236;BME280;9752;54.270;12.470;2023-05-11T23:33:38;102058.50;;;9.37;100.00
19236;BME280;9752;54.270;12.470;2023-05-11T23:38:40;102062.78;;;9.26;100.00
19236;BME280;9752;54.270;12.470;2023-05-11T23:43:42;102065.09;;;9.13;100.00
19236;BME280;9752;54.270;12.470;2023-05-11T23:48:45;102072.28;;;9.07;100.00
19236;BME280;9752;54.270;12.470;2023-05-11T23:53:46;102070.34;;;9.04;100.00
19236;BME280;9752;54.270;12.470;2023-05-11T23:58:48;102066.59;;;9.01;100.00
